Time;durP1;ratioP1;P1;durP2;ratioP2;P2;SDS_P1;SDS_P2;PMS_P1;PMS_P2;Temp;Humidity;BMP_temperature;BMP_pressure;BME280_temperature;BME280_humidity;BME280_pressure;Samples;Min_cycle;Max_cycle;Signal;HPM_P1;HPM_P2
2023/06/19 00:00:15;;;;;;;12.40;9.02;;;14.20;99.90;;;;;;5005985;28;20129;-62
2023/06/19 00:02:43;;;;;;;15.82;9.68;;;14.10;99.90;;;;;;4992654;28;20056;-62
2023/06/19 00:05:10;;;;;;;19.83;9.98;;;14.10;99.90;;;;;;5005927;28;21150;-63
2023/06/19 00:07:37;;;;;;;17.48;9.30;;;14.10;99.90;;;;;;5013668;28;20053;-62
2023/06/19 00:10:04;;;;;;;20.55;10.65;;;14.20;99.90;;;;;;5010607;28;20442;-63
2023/06/19 00:12:30;;;;;;;23.50;11.68;;;14.10;99.90;;;;;;4919227;28;20400;-62
2023/06/19 00:14:56;;;;;;;21.13;10.95;;;14.10;99.90;;;;;;4931553;28;20058;-62
2023/06/19 00:17:25;;;;;;;24.02;11.70;;;14.00;99.90;;;;;;4949901;28;20039;-62
2023/06/19 00:19:52;;;;;;;18.05;10.05;;;14.00;99.90;;;;;;4985819;28;20100;-62
2023/06/19 00:22:18;;;;;;;17.27;9.95;;;14.00;99.90;;;;;;5003606;28;20084;-62
2023/06/19 00:24:44;;;;;;;19.40;9.80;;;13.90;99.90;;;;;;4990808;28;20839;-62
2023/06/19 00:27:10;;;;;;;18.90;10.02;;;13.90;99.90;;;;;;5004667;28;22032;-62
2023/06/19 00:29:36;;;;;;;16.98;9.18;;;13.90;99.90;;;;;;4993072;28;22809;-62
2023/06/19 00:32:02;;;;;;;15.88;9.55;;;13.90;99.90;;;;;;4995853;28;22654;-62
2023/06/19 00:34:30;;;;;;;19.30;10.25;;;13.90;99.90;;;;;;5009858;28;23487;-62
2023/06/19 00:36:57;;;;;;;18.10;9.48;;;13.90;99.90;;;;;;5004185;28;23514;-62
2023/06/19 00:39:27;;;;;;;17.02;9.80;;;13.80;99.90;;;;;;4993404;28;24218;-62
2023/06/19 00:41:53;;;;;;;19.50;10.63;;;13.90;99.90;;;;;;4962737;28;31665;-62
2023/06/19 00:44:19;;;;;;;16.17;9.93;;;13.90;99.90;;;;;;4994320;28;24912;-62
2023/06/19 00:46:46;;;;;;;16.98;9.93;;;13.90;99.90;;;;;;4988793;28;32981;-62
2023/06/19 00:49:13;;;;;;;18.55;9.93;;;13.90;99.90;;;;;;4956140;28;34328;-62
2023/06/19 00:51:39;;;;;;;21.13;10.40;;;13.80;99.90;;;;;;4998510;28;34660;-62
2023/06/19 00:54:06;;;;;;;15.35;9.15;;;13.80;99.90;;;;;;4971527;28;35930;-62
2023/06/19 00:56:34;;;;;;;15.18;9.52;;;13.80;99.90;;;;;;4905349;28;37754;-62
2023/06/19 00:59:01;;;;;;;17.45;9.32;;;13.70;99.90;;;;;;4922975;28;39881;-62
2023/06/19 01:01:28;;;;;;;13.48;9.00;;;13.70;99.90;;;;;;4987085;28;39998;-62
2023/06/19 01:03:55;;;;;;;12.80;9.38;;;13.70;99.90;;;;;;4986236;28;42359;-62
2023/06/19 01:06:28;;;;;;;19.27;8.95;;;13.70;99.90;;;;;;4985226;28;43617;-63
2023/06/19 01:09:05;;;;;;;17.52;8.48;;;13.60;99.90;;;;;;5002365;28;44539;-62
2023/06/19 01:11:37;;;;;;;13.48;9.20;;;13.60;99.90;;;;;;4988521;28;46247;-62
2023/06/19 01:14:08;;;;;;;14.68;8.65;;;13.60;99.90;;;;;;4993516;28;47553;-62
2023/06/19 01:16:36;;;;;;;12.50;9.25;;;13.60;99.90;;;;;;4968345;28;48563;-62
2023/06/19 01:19:05;;;;;;;15.18;8.93;;;13.50;99.90;;;;;;4931858;28;49135;-62
2023/06/19 01:21:33;;;;;;;16.52;8.45;;;13.50;99.90;;;;;;4947391;28;50199;-62
2023/06/19 01:23:59;;;;;;;19.50;8.43;;;13.40;99.90;;;;;;4959456;28;49589;-62
2023/06/19 01:26:27;;;;;;;13.13;8.50;;;13.40;99.90;;;;;;4974857;28;49288;-62
2023/06/19 01:28:54;;;;;;;14.30;8.75;;;13.40;99.90;;;;;;4979192;28;48967;-62
2023/06/19 01:31:33;;;;;;;13.50;8.90;;;13.40;99.90;;;;;;4984151;28;48156;-62
2023/06/19 01:34:01;;;;;;;16.00;8.00;;;13.30;99.90;;;;;;4929278;28;31559;-62
2023/06/19 01:36:28;;;;;;;16.05;8.25;;;13.30;99.90;;;;;;4931501;28;49572;-62
2023/06/19 01:38:57;;;;;;;16.10;8.80;;;13.20;99.90;;;;;;4911270;28;49154;-62
2023/06/19 01:41:24;;;;;;;14.90;8.65;;;13.30;99.90;;;;;;4921678;28;49634;-62
2023/06/19 01:43:51;;;;;;;11.75;8.38;;;13.30;99.90;;;;;;4935144;28;49931;-62
2023/06/19 01:46:18;;;;;;;15.27;8.68;;;13.20;99.90;;;;;;4933861;28;63891;-62
2023/06/19 01:48:44;;;;;;;17.63;8.20;;;13.20;99.90;;;;;;4946179;28;65054;-62
2023/06/19 01:51:11;;;;;;;14.73;7.93;;;13.20;99.90;;;;;;4959924;28;66935;-62
2023/06/19 01:53:38;;;;;;;11.10;7.25;;;13.20;99.90;;;;;;4957464;28;43333;-62
2023/06/19 01:56:04;;;;;;;16.67;8.10;;;13.20;99.90;;;;;;4981015;28;49467;-62
2023/06/19 01:58:30;;;;;;;22.38;8.77;;;13.10;99.90;;;;;;4963719;28;45407;-62
2023/06/19 02:00:57;;;;;;;13.02;8.50;;;13.00;99.90;;;;;;4947112;28;45476;-62
2023/06/19 02:03:23;;;;;;;20.85;9.00;;;13.00;99.90;;;;;;4966842;28;49327;-62
2023/06/19 02:05:48;;;;;;;13.35;9.13;;;13.00;99.90;;;;;;4962607;28;24970;-62
2023/06/19 02:08:15;;;;;;;17.30;9.13;;;12.90;99.90;;;;;;4972630;28;48938;-62
2023/06/19 02:10:41;;;;;;;14.65;8.65;;;12.90;99.90;;;;;;4955647;28;49828;-62
2023/06/19 02:13:06;;;;;;;19.10;9.35;;;12.90;99.90;;;;;;4947256;28;49160;-62
2023/06/19 02:15:32;;;;;;;10.98;7.93;;;12.90;99.90;;;;;;4928466;28;49156;-62
2023/06/19 02:18:00;;;;;;;15.02;8.40;;;12.80;99.90;;;;;;4931897;28;74183;-62
2023/06/19 02:20:26;;;;;;;15.90;8.70;;;12.80;99.90;;;;;;4911116;28;50044;-62
2023/06/19 02:22:55;;;;;;;17.17;8.38;;;12.80;99.90;;;;;;4959821;28;30078;-62
2023/06/19 02:25:22;;;;;;;14.25;8.48;;;12.80;99.90;;;;;;4954644;28;49174;-62
2023/06/19 02:27:48;;;;;;;17.05;8.98;;;12.80;99.90;;;;;;4936187;28;49238;-62
2023/06/19 02:30:14;;;;;;;12.73;8.35;;;12.80;99.90;;;;;;4927055;28;48629;-62
2023/06/19 02:32:40;;;;;;;16.60;8.82;;;12.80;99.90;;;;;;4936934;28;25056;-63
2023/06/19 02:35:09;;;;;;;12.68;8.55;;;12.80;99.90;;;;;;4964094;28;48847;-62
2023/06/19 02:37:36;;;;;;;16.02;8.77;;;12.80;99.90;;;;;;4983805;28;49355;-62
2023/06/19 02:40:06;;;;;;;15.15;8.15;;;12.80;99.90;;;;;;4983752;28;48902;-62
2023/06/19 02:42:32;;;;;;;11.60;7.93;;;12.70;99.90;;;;;;4986097;28;24918;-62
2023/06/19 02:45:03;;;;;;;14.15;8.10;;;12.70;99.90;;;;;;4977335;28;29341;-62
2023/06/19 02:47:30;;;;;;;16.30;8.70;;;12.70;99.90;;;;;;4976832;28;30343;-62
2023/06/19 02:49:58;;;;;;;17.50;8.50;;;12.70;99.90;;;;;;4942540;28;24795;-62
2023/06/19 02:52:24;;;;;;;17.92;9.35;;;12.60;99.90;;;;;;4942624;28;24908;-62
2023/06/19 02:54:50;;;;;;;16.30;8.40;;;12.60;99.90;;;;;;4979145;28;25015;-62
2023/06/19 02:57:16;;;;;;;17.00;8.73;;;12.60;99.90;;;;;;4937635;28;30807;-62
2023/06/19 02:59:42;;;;;;;19.02;8.43;;;12.50;99.90;;;;;;4957470;28;24641;-62
2023/06/19 03:02:08;;;;;;;13.40;8.77;;;12.60;99.90;;;;;;4965458;28;24996;-62
2023/06/19 03:04:36;;;;;;;14.40;8.20;;;12.60;99.90;;;;;;4976485;28;31091;-62
2023/06/19 03:07:04;;;;;;;18.33;8.77;;;12.60;99.90;;;;;;4955729;28;31399;-62
2023/06/19 03:09:30;;;;;;;16.77;9.07;;;12.60;99.90;;;;;;4887458;28;32712;-62
2023/06/19 03:11:56;;;;;;;14.80;9.13;;;12.50;99.90;;;;;;4897692;28;24428;-62
2023/06/19 03:14:22;;;;;;;13.68;8.38;;;12.50;99.90;;;;;;4923918;28;24540;-62
2023/06/19 03:16:48;;;;;;;10.57;8.15;;;12.50;99.90;;;;;;4878526;28;24883;-63
2023/06/19 03:19:14;;;;;;;16.98;8.57;;;12.50;99.90;;;;;;4908639;28;24746;-62
2023/06/19 03:21:40;;;;;;;17.63;8.48;;;12.50;99.90;;;;;;4947653;28;32928;-62
2023/06/19 03:24:07;;;;;;;10.02;7.97;;;12.50;99.90;;;;;;4928074;28;33461;-62
2023/06/19 03:26:34;;;;;;;10.55;7.47;;;12.50;99.90;;;;;;4913400;28;33492;-62
2023/06/19 03:29:02;;;;;;;12.23;8.43;;;12.50;99.90;;;;;;4912612;28;33863;-62
2023/06/19 03:31:36;;;;;;;20.52;9.35;;;12.50;99.90;;;;;;4884562;28;45049;-63
2023/06/19 03:34:03;;;;;;;11.60;7.88;;;12.50;99.90;;;;;;4878924;28;34322;-62
2023/06/19 03:36:29;;;;;;;12.35;8.00;;;12.50;99.90;;;;;;4887924;28;69793;-63
2023/06/19 03:38:56;;;;;;;22.05;8.48;;;12.50;99.90;;;;;;4900365;28;45599;-63
2023/06/19 03:44:31;;;;;;;12.70;8.65;;;12.50;99.90;;;;;;5144638;27;20378;-62
2023/06/19 03:46:58;;;;;;;14.88;9.10;;;12.50;99.90;;;;;;5102926;28;20039;-63
2023/06/19 03:49:24;;;;;;;14.63;9.32;;;12.50;99.90;;;;;;5084135;28;20110;-62
2023/06/19 03:51:50;;;;;;;16.20;9.43;;;12.60;99.90;;;;;;5124542;27;20107;-62
2023/06/19 03:54:16;;;;;;;23.20;8.80;;;12.60;99.90;;;;;;4946374;28;2135249;-62
2023/06/19 03:56:42;;;;;;;14.55;8.60;;;12.70;99.90;;;;;;5001712;28;20507;-62
2023/06/19 03:59:08;;;;;;;14.25;8.48;;;12.70;99.90;;;;;;5013286;28;20112;-62
2023/06/19 04:01:34;;;;;;;11.48;7.95;;;12.80;99.90;;;;;;5000264;28;20047;-62
2023/06/19 04:04:00;;;;;;;15.07;9.13;;;12.90;99.90;;;;;;5018879;28;20057;-62
2023/06/19 04:06:27;;;;;;;20.33;9.43;;;12.90;99.90;;;;;;4995908;28;22988;-62
2023/06/19 04:08:53;;;;;;;13.50;9.05;;;13.00;99.90;;;;;;4955336;28;20054;-62
2023/06/19 04:11:19;;;;;;;12.98;8.50;;;13.00;99.90;;;;;;4969751;28;20047;-62
2023/06/19 04:13:46;;;;;;;15.45;8.85;;;13.10;99.90;;;;;;4952844;28;20039;-62
2023/06/19 04:16:12;;;;;;;16.00;8.93;;;13.10;99.90;;;;;;4935290;28;20051;-62
2023/06/19 04:18:39;;;;;;;16.42;8.50;;;13.20;99.90;;;;;;4957866;28;20074;-63
2023/06/19 04:21:05;;;;;;;14.23;9.07;;;13.30;99.90;;;;;;4983106;28;20047;-62
2023/06/19 04:23:32;;;;;;;23.88;10.27;;;13.30;99.90;;;;;;4958690;28;20082;-62
2023/06/19 04:25:58;;;;;;;18.13;10.38;;;13.40;99.90;;;;;;4990750;28;20076;-62
2023/06/19 04:30:49;;;;;;;16.75;9.77;;;13.50;99.90;;;;;;4984783;28;20049;-63
2023/06/19 04:33:15;;;;;;;20.00;10.07;;;13.50;99.90;;;;;;4967455;28;20060;-63
2023/06/19 04:35:41;;;;;;;21.17;9.27;;;13.60;99.90;;;;;;4994717;28;20132;-63
2023/06/19 04:38:08;;;;;;;16.45;9.65;;;13.70;99.90;;;;;;4966340;28;20050;-63
2023/06/19 04:40:34;;;;;;;14.70;9.75;;;13.80;99.90;;;;;;4993965;28;20042;-63
2023/06/19 04:43:02;;;;;;;21.90;10.30;;;13.80;99.90;;;;;;4992917;28;20495;-63
2023/06/19 04:45:28;;;;;;;16.83;10.20;;;14.00;99.90;;;;;;4991596;28;20049;-62
2023/06/19 04:47:54;;;;;;;20.63;9.20;;;14.10;99.90;;;;;;4980482;28;20050;-62
2023/06/19 04:50:21;;;;;;;25.92;9.90;;;14.10;99.90;;;;;;4990380;28;20358;-62
2023/06/19 04:52:50;;;;;;;20.73;10.57;;;14.20;99.90;;;;;;4988146;28;20072;-63
2023/06/19 04:55:16;;;;;;;21.40;11.15;;;14.30;99.90;;;;;;4957910;28;20043;-63
2023/06/19 04:57:42;;;;;;;19.42;9.98;;;14.30;99.90;;;;;;4961132;28;20050;-63
2023/06/19 05:00:11;;;;;;;25.90;11.18;;;14.50;99.90;;;;;;4970963;28;20399;-63
2023/06/19 05:02:37;;;;;;;23.13;15.63;;;14.60;99.90;;;;;;4959936;28;20042;-63
2023/06/19 05:05:03;;;;;;;20.10;11.70;;;14.70;99.90;;;;;;4953497;28;20133;-63
2023/06/19 05:07:33;;;;;;;20.55;11.02;;;14.80;99.90;;;;;;4966533;28;20046;-63
2023/06/19 05:09:59;;;;;;;17.40;10.13;;;14.90;99.90;;;;;;4975218;28;20057;-63
2023/06/19 05:12:25;;;;;;;17.23;10.52;;;14.90;99.90;;;;;;4999498;28;20092;-63
2023/06/19 05:14:51;;;;;;;15.25;10.15;;;15.00;99.90;;;;;;4992212;28;20749;-62
2023/06/19 05:17:17;;;;;;;17.55;9.88;;;15.20;99.90;;;;;;4985299;28;20042;-62
2023/06/19 05:19:43;;;;;;;20.38;9.68;;;15.30;99.90;;;;;;4989759;28;20550;-62
2023/06/19 05:22:09;;;;;;;15.43;9.93;;;15.30;99.90;;;;;;4968187;28;20062;-63
2023/06/19 05:24:35;;;;;;;18.23;10.43;;;15.50;99.90;;;;;;4973996;28;20181;-63
2023/06/19 05:27:01;;;;;;;26.52;11.00;;;15.50;99.90;;;;;;4943316;28;20040;-62
2023/06/19 05:29:27;;;;;;;19.20;10.02;;;15.60;99.90;;;;;;4953787;28;20056;-62
2023/06/19 05:31:53;;;;;;;17.30;10.07;;;15.80;99.90;;;;;;4957856;28;20033;-62
2023/06/19 05:34:19;;;;;;;22.95;10.65;;;15.90;99.90;;;;;;4965884;28;20072;-63
2023/06/19 05:36:46;;;;;;;16.63;9.48;;;16.00;99.90;;;;;;4985056;28;20046;-62
2023/06/19 05:39:13;;;;;;;24.58;10.90;;;16.10;99.90;;;;;;4936614;28;20085;-62
2023/06/19 05:41:39;;;;;;;20.30;10.45;;;16.20;99.90;;;;;;4951295;28;20046;-62
2023/06/19 05:44:05;;;;;;;19.02;12.18;;;16.30;99.90;;;;;;4961919;28;20069;-62
2023/06/19 05:46:31;;;;;;;22.73;11.95;;;16.40;99.90;;;;;;4947104;28;20136;-62
2023/06/19 05:48:57;;;;;;;17.42;10.07;;;16.50;99.90;;;;;;4956442;28;20039;-62
2023/06/19 05:51:23;;;;;;;25.52;11.23;;;16.60;99.90;;;;;;4929197;28;20051;-62
2023/06/19 05:53:49;;;;;;;19.60;10.73;;;16.60;99.90;;;;;;4928021;28;20049;-63
2023/06/19 05:56:16;;;;;;;18.55;11.73;;;16.80;99.90;;;;;;4918142;28;20050;-63
2023/06/19 05:58:42;;;;;;;25.75;13.40;;;16.90;99.90;;;;;;4925161;28;20043;-62
2023/06/19 06:01:08;;;;;;;24.02;11.90;;;17.20;99.90;;;;;;4934821;28;27397;-62
2023/06/19 06:03:35;;;;;;;24.27;11.07;;;17.40;99.90;;;;;;4941950;28;21470;-63
2023/06/19 06:06:04;;;;;;;15.18;10.23;;;17.50;99.90;;;;;;4906942;28;20192;-63
2023/06/19 06:08:31;;;;;;;20.05;9.82;;;17.60;99.90;;;;;;4937967;28;20557;-63
2023/06/19 06:10:57;;;;;;;20.70;10.48;;;17.80;99.90;;;;;;4915075;28;20832;-63
2023/06/19 06:13:23;;;;;;;20.50;9.00;;;17.90;99.90;;;;;;4958922;28;20839;-62
2023/06/19 06:15:50;;;;;;;13.60;9.18;;;18.10;99.90;;;;;;4965194;28;21528;-62
2023/06/19 06:18:16;;;;;;;21.67;9.80;;;18.20;99.90;;;;;;4934607;28;21668;-63
2023/06/19 06:20:43;;;;;;;16.85;8.82;;;18.30;99.90;;;;;;4943589;28;22168;-63
2023/06/19 06:23:09;;;;;;;24.88;9.70;;;18.50;99.90;;;;;;4947240;28;22598;-63
2023/06/19 06:25:35;;;;;;;19.30;9.30;;;18.70;99.90;;;;;;4952863;28;23272;-63
2023/06/19 06:28:02;;;;;;;17.85;9.30;;;18.80;99.90;;;;;;4919553;28;31628;-62
2023/06/19 06:30:28;;;;;;;19.80;9.57;;;19.00;99.90;;;;;;4955543;28;25019;-63
2023/06/19 06:32:54;;;;;;;19.40;9.20;;;19.20;99.90;;;;;;4931517;28;24747;-63
2023/06/19 06:35:21;;;;;;;24.60;9.02;;;19.40;99.90;;;;;;4924881;28;24617;-63
2023/06/19 06:37:49;;;;;;;17.70;9.13;;;19.50;99.90;;;;;;4925249;28;32004;-63
2023/06/19 06:40:17;;;;;;;19.52;9.20;;;19.60;99.90;;;;;;4934264;28;25018;-63
2023/06/19 06:42:49;;;;;;;19.02;9.23;;;19.80;99.90;;;;;;4926651;28;31913;-62
2023/06/19 06:45:16;;;;;;;19.00;9.25;;;19.90;99.90;;;;;;4894845;28;31843;-63
2023/06/19 06:47:42;;;;;;;13.85;8.23;;;20.10;99.90;;;;;;4907446;28;24879;-63
2023/06/19 06:50:09;;;;;;;19.02;7.75;;;20.10;99.90;;;;;;4933044;28;24897;-63
2023/06/19 06:52:35;;;;;;;19.38;8.57;;;20.30;99.90;;;;;;4953769;28;24898;-63
2023/06/19 06:55:01;;;;;;;13.65;7.95;;;20.50;99.90;;;;;;4929177;28;49148;-63
2023/06/19 06:57:28;;;;;;;16.88;8.50;;;20.80;99.90;;;;;;4922710;28;49686;-63
2023/06/19 06:59:54;;;;;;;20.25;9.23;;;21.10;99.90;;;;;;4876520;28;32787;-63
2023/06/19 07:02:20;;;;;;;16.45;8.00;;;21.30;99.90;;;;;;4934874;28;33372;-63
2023/06/19 07:04:46;;;;;;;23.77;9.82;;;21.50;99.90;;;;;;4953245;28;48643;-63
2023/06/19 07:07:12;;;;;;;17.63;9.65;;;21.70;99.90;;;;;;4956130;28;49412;-63
2023/06/19 07:09:38;;;;;;;21.50;9.52;;;22.00;99.90;;;;;;4905727;28;35990;-63
2023/06/19 07:12:06;;;;;;;17.02;8.63;;;22.30;99.90;;;;;;4935818;28;48985;-63
2023/06/19 07:14:33;;;;;;;12.90;7.88;;;22.50;99.90;;;;;;4878898;28;49785;-63
2023/06/19 07:16:59;;;;;;;14.10;8.55;;;22.90;99.90;;;;;;4837812;29;37675;-63
2023/06/19 07:19:25;;;;;;;14.98;8.55;;;23.20;99.90;;;;;;4901475;28;25014;-63
2023/06/19 07:21:51;;;;;;;19.30;9.07;;;23.40;99.90;;;;;;4876543;28;38143;-63
2023/06/19 07:24:17;;;;;;;16.92;8.55;;;23.70;99.90;;;;;;4910563;28;49915;-63
2023/06/19 07:26:45;;;;;;;13.57;9.02;;;24.10;99.90;;;;;;4934981;28;40148;-64
2023/06/19 07:29:11;;;;;;;20.70;8.98;;;24.30;99.90;;;;;;4932993;28;25010;-64
2023/06/19 07:31:38;;;;;;;15.05;7.38;;;24.50;99.90;;;;;;4844805;28;49353;-63
2023/06/19 07:34:04;;;;;;;19.92;8.77;;;24.70;99.90;;;;;;4914043;28;48859;-64
2023/06/19 07:36:30;;;;;;;17.92;8.02;;;25.10;99.90;;;;;;4929358;28;48988;-64
2023/06/19 07:38:56;;;;;;;14.82;7.13;;;25.40;99.90;;;;;;4936650;28;49568;-64
2023/06/19 07:41:35;;;;;;;19.38;7.72;;;25.80;99.90;;;;;;4894482;28;49820;-64
2023/06/19 07:44:09;;;;;;;15.30;7.63;;;25.60;99.90;;;;;;4836810;28;69181;-63
2023/06/19 07:46:35;;;;;;;13.50;7.30;;;26.00;99.90;;;;;;4869511;28;75118;-64
2023/06/19 07:49:01;;;;;;;21.73;7.35;;;26.40;99.90;;;;;;4849757;28;75572;-63
2023/06/19 07:51:27;;;;;;;15.07;6.55;;;26.60;99.90;;;;;;4909864;28;72597;-63
2023/06/19 07:53:53;;;;;;;12.63;7.18;;;26.80;99.90;;;;;;4921236;28;49638;-64
2023/06/19 07:56:19;;;;;;;16.25;6.65;;;26.80;99.90;;;;;;4912860;28;49823;-64
2023/06/19 08:01:10;;;;;;;16.50;7.35;;;27.40;99.90;;;;;;4919040;28;73508;-64
2023/06/19 08:03:37;;;;;;;12.50;6.97;;;27.40;99.90;;;;;;4911055;28;49454;-64
2023/06/19 08:06:03;;;;;;;11.45;6.90;;;27.60;99.90;;;;;;4911554;28;74498;-64
2023/06/19 08:08:29;;;;;;;10.77;6.57;;;27.40;69.10;;;;;;4915259;28;49284;-64
2023/06/19 08:10:55;;;;;;;10.20;6.50;;;27.70;68.10;;;;;;4883546;28;67087;-64
2023/06/19 08:13:24;;;;;;;12.73;7.28;;;28.10;68.70;;;;;;4906931;28;49928;-64
2023/06/19 08:15:50;;;;;;;11.38;7.03;;;28.10;69.60;;;;;;4889036;28;50265;-64
2023/06/19 08:18:17;;;;;;;13.07;7.20;;;27.80;65.80;;;;;;4883652;28;49793;-64
2023/06/19 08:20:49;;;;;;;19.05;7.97;;;28.00;73.00;;;;;;4862362;28;49502;-64
2023/06/19 08:23:15;;;;;;;13.13;7.47;;;28.70;70.00;;;;;;4862590;28;48925;-63
2023/06/19 08:25:41;;;;;;;11.02;7.00;;;29.10;67.00;;;;;;4867679;28;74290;-64
2023/06/19 08:28:08;;;;;;;;;;;28.90;65.10;;;;;;4860459;28;120197;-63
2023/06/19 08:30:34;;;;;;;20.98;7.90;;;29.30;71.80;;;;;;4882267;28;62903;-63
2023/06/19 08:33:00;;;;;;;10.77;7.47;;;29.70;71.80;;;;;;4889454;28;49892;-63
2023/06/19 08:35:27;;;;;;;15.68;8.90;;;29.50;61.10;;;;;;4883294;28;24903;-63
2023/06/19 08:37:54;;;;;;;14.98;8.45;;;29.60;67.60;;;;;;4905012;28;49874;-63
2023/06/19 08:43:13;;;;;;;12.15;7.82;;;29.60;65.40;;;;;;5143314;27;20214;-63
2023/06/19 08:46:11;;;;;;;19.17;8.50;;;29.60;71.00;;;;;;5074866;27;2004057;-63
2023/06/19 08:48:39;;;;;;;17.77;8.23;;;30.20;70.30;;;;;;5088124;28;20055;-63
2023/06/19 08:51:08;;;;;;;18.98;8.75;;;30.70;71.40;;;;;;5061723;28;20051;-63
2023/06/19 08:53:43;;;;;;;12.20;7.72;;;30.90;68.60;;;;;;5045584;28;20046;-63
2023/06/19 08:56:12;;;;;;;12.30;8.05;;;30.70;65.50;;;;;;4972338;28;20050;-63
2023/06/19 08:58:38;;;;;;;15.45;8.68;;;31.00;73.20;;;;;;4990313;28;20456;-63
2023/06/19 09:01:05;;;;;;;14.90;8.55;;;31.40;69.30;;;;;;5022456;28;20053;-63
2023/06/19 09:03:31;;;;;;;16.92;7.60;;;31.60;61.80;;;;;;4981444;28;20042;-63
2023/06/19 09:06:08;;;;;;;17.02;7.70;;;31.40;64.00;;;;;;4947369;28;20110;-63
2023/06/19 09:08:37;;;;;;;16.23;8.40;;;31.80;67.30;;;;;;4980202;28;20050;-63
2023/06/19 09:11:18;;;;;;;17.73;9.10;;;31.90;63.70;;;;;;4944202;28;20560;-63
2023/06/19 09:14:05;;;;;;;11.93;7.63;;;31.80;57.10;;;;;;4970747;28;20041;-63
2023/06/19 09:16:41;;;;;;;13.45;7.28;;;31.40;63.10;;;;;;4990647;28;20478;-63
2023/06/19 09:19:08;;;;;;;15.48;7.50;;;31.80;62.00;;;;;;5007043;28;20501;-63
2023/06/19 09:21:37;;;;;;;11.35;6.93;;;31.90;54.80;;;;;;4972351;28;20070;-63
2023/06/19 09:24:08;;;;;;;13.30;7.10;;;32.30;54.50;;;;;;5017058;28;20621;-63
2023/06/19 09:26:35;;;;;;;10.82;7.50;;;31.70;55.00;;;;;;4985305;28;20292;-63
2023/06/19 09:29:17;;;;;;;13.70;6.78;;;31.80;53.60;;;;;;4973338;28;20031;-63
2023/06/19 09:31:46;;;;;;;17.05;7.32;;;32.10;53.20;;;;;;5013018;28;20132;-63
2023/06/19 09:34:13;;;;;;;17.33;6.93;;;32.10;48.40;;;;;;4996097;28;20152;-63
2023/06/19 09:36:40;;;;;;;14.63;7.13;;;32.40;50.90;;;;;;4986011;28;20081;-63
2023/06/19 09:39:07;;;;;;;11.60;6.63;;;32.50;50.20;;;;;;4980963;28;20818;-63
2023/06/19 09:41:36;;;;;;;12.55;6.65;;;32.60;49.60;;;;;;4967408;28;20681;-63
2023/06/19 09:44:12;;;;;;;13.18;6.47;;;32.70;48.00;;;;;;4985375;28;20049;-63
2023/06/19 09:46:44;;;;;;;14.05;6.95;;;33.20;50.80;;;;;;4986227;28;20049;-63
2023/06/19 09:49:12;;;;;;;11.20;6.60;;;33.40;46.20;;;;;;5016269;28;20475;-63
2023/06/19 09:51:42;;;;;;;21.95;6.93;;;33.10;46.70;;;;;;4996267;28;21428;-63
2023/06/19 09:54:09;;;;;;;19.48;6.88;;;33.10;48.90;;;;;;4990259;28;20506;-63
2023/06/19 09:56:44;;;;;;;16.05;6.43;;;32.80;48.20;;;;;;4986691;28;20475;-63
2023/06/19 09:59:18;;;;;;;13.05;6.05;;;33.00;50.90;;;;;;4972699;28;20089;-63
2023/06/19 10:01:58;;;;;;;9.40;5.55;;;33.10;46.50;;;;;;4986202;28;20961;-63
2023/06/19 10:04:29;;;;;;;11.90;5.60;;;33.50;43.40;;;;;;4992719;28;20662;-63
2023/06/19 10:06:57;;;;;;;12.82;5.78;;;33.40;48.80;;;;;;5008448;28;21006;-64
2023/06/19 10:09:40;;;;;;;15.98;6.28;;;33.30;48.40;;;;;;4972205;28;20112;-63
2023/06/19 10:12:17;;;;;;;12.13;5.93;;;33.80;47.10;;;;;;4859772;29;20088;-63
2023/06/19 10:14:49;;;;;;;15.70;6.67;;;34.00;44.70;;;;;;4587548;29;2579141;-63
2023/06/19 10:17:25;;;;;;;9.93;5.63;;;33.40;44.70;;;;;;4819772;29;20028;-63
2023/06/19 10:20:00;;;;;;;12.55;5.68;;;33.90;46.00;;;;;;4922571;28;20043;-63
2023/06/19 10:22:33;;;;;;;11.48;6.07;;;34.20;50.10;;;;;;4990983;28;20050;-63
2023/06/19 10:24:59;;;;;;;16.30;6.60;;;34.30;45.80;;;;;;5009982;28;20057;-64
2023/06/19 10:27:26;;;;;;;12.52;6.85;;;34.50;44.30;;;;;;5001690;28;21739;-63
2023/06/19 10:29:54;;;;;;;14.50;7.18;;;34.20;42.70;;;;;;4971924;28;20035;-63
2023/06/19 10:32:21;;;;;;;13.10;6.45;;;34.70;39.10;;;;;;4987262;28;20042;-63
2023/06/19 10:34:51;;;;;;;10.52;6.30;;;33.50;39.40;;;;;;4949521;28;20130;-63
2023/06/19 10:37:17;;;;;;;9.13;5.45;;;34.10;41.70;;;;;;4920087;28;20095;-64
2023/06/19 10:39:43;;;;;;;8.10;5.55;;;34.30;40.70;;;;;;4982014;28;20419;-63
2023/06/19 10:42:10;;;;;;;8.98;6.00;;;34.00;37.70;;;;;;4954445;28;20510;-63
2023/06/19 10:44:41;;;;;;;10.02;6.00;;;34.40;36.80;;;;;;4953206;28;20195;-63
2023/06/19 10:47:08;;;;;;;8.90;5.63;;;34.80;43.30;;;;;;4922690;28;20516;-63
2023/06/19 10:49:34;;;;;;;8.68;5.20;;;35.30;38.70;;;;;;4956396;28;20378;-63
2023/06/19 10:52:00;;;;;;;11.88;5.90;;;35.50;36.60;;;;;;4981332;28;20045;-63
2023/06/19 10:54:29;;;;;;;9.05;5.97;;;35.40;32.50;;;;;;5025682;28;20048;-63
2023/06/19 10:56:55;;;;;;;13.40;6.55;;;34.80;31.90;;;;;;5030108;28;20068;-63
2023/06/19 10:59:21;;;;;;;8.35;5.45;;;34.20;34.20;;;;;;5026324;28;20147;-63
2023/06/19 11:01:51;;;;;;;12.43;5.68;;;34.40;34.00;;;;;;4967539;28;20070;-63
2023/06/19 11:04:17;;;;;;;13.52;5.55;;;34.70;33.70;;;;;;4961856;28;20052;-63
2023/06/19 11:06:45;;;;;;;9.25;5.70;;;35.10;37.30;;;;;;5021557;28;20461;-63
2023/06/19 11:09:12;;;;;;;10.10;5.78;;;35.30;33.00;;;;;;5008017;28;20542;-63
2023/06/19 11:11:41;;;;;;;12.13;6.20;;;35.40;35.90;;;;;;5014416;28;20053;-63
2023/06/19 11:14:09;;;;;;;11.20;5.45;;;35.20;32.50;;;;;;4973529;28;20085;-63
2023/06/19 11:16:39;;;;;;;11.65;5.68;;;35.60;32.40;;;;;;4981467;28;20124;-63
2023/06/19 11:19:14;;;;;;;9.85;5.55;;;35.30;33.30;;;;;;4976380;28;20046;-63
2023/06/19 11:21:40;;;;;;;12.23;5.53;;;35.50;32.80;;;;;;4996449;28;20049;-63
2023/06/19 11:24:11;;;;;;;8.20;5.03;;;34.60;28.30;;;;;;4956739;28;20058;-63
2023/06/19 11:26:49;;;;;;;12.13;5.35;;;34.70;36.40;;;;;;4973239;28;20079;-63
2023/06/19 11:29:35;;;;;;;6.60;5.13;;;34.70;32.30;;;;;;5003609;28;20052;-63
2023/06/19 11:32:14;;;;;;;9.38;6.57;;;34.60;30.80;;;;;;4984941;28;20502;-63
2023/06/19 11:34:40;;;;;;;9.48;5.25;;;34.70;29.20;;;;;;4984507;28;20064;-63
2023/06/19 11:37:17;;;;;;;7.88;5.53;;;35.10;33.30;;;;;;4988485;28;20049;-63
2023/06/19 11:39:45;;;;;;;13.68;6.00;;;35.50;32.90;;;;;;4979266;28;20049;-64
2023/06/19 11:42:11;;;;;;;8.10;5.13;;;35.50;40.40;;;;;;4995112;28;20045;-63
2023/06/19 11:44:55;;;;;;;7.68;4.70;;;34.90;28.20;;;;;;4914966;28;20047;-63
2023/06/19 11:47:24;;;;;;;13.40;5.82;;;34.90;27.30;;;;;;4942141;28;20525;-63
2023/06/19 11:49:51;;;;;;;;;;;35.00;33.70;;;;;;4976588;28;20793;-63
2023/06/19 11:52:17;;;;;;;8.50;5.13;;;35.40;34.60;;;;;;4948340;28;21598;-63
2023/06/19 11:54:43;;;;;;;15.32;8.45;;;35.70;32.70;;;;;;4929053;28;22638;-63
2023/06/19 11:57:13;;;;;;;16.48;6.38;;;35.90;26.30;;;;;;4965078;28;22801;-63
2023/06/19 11:59:42;;;;;;;9.93;5.28;;;35.90;25.90;;;;;;4977085;28;24181;-63
2023/06/19 12:02:09;;;;;;;7.68;5.85;;;35.60;26.60;;;;;;4991561;28;24057;-63
2023/06/19 12:04:36;;;;;;;9.65;6.53;;;35.10;28.60;;;;;;4976409;28;35063;-61
2023/06/19 12:07:03;;;;;;;17.55;9.68;;;35.30;26.90;;;;;;5013467;28;35413;-63
2023/06/19 12:09:30;;;;;;;9.68;5.80;;;35.10;28.10;;;;;;4997602;28;35971;-63
2023/06/19 12:11:56;;;;;;;9.60;5.32;;;35.50;27.10;;;;;;4957082;28;36735;-63
2023/06/19 12:14:26;;;;;;;13.88;7.30;;;35.70;27.70;;;;;;4978640;28;38238;-63
2023/06/19 12:16:52;;;;;;;8.75;6.43;;;35.40;25.20;;;;;;4974442;28;38658;-63
2023/06/19 12:19:18;;;;;;;16.73;6.72;;;34.90;27.20;;;;;;4864216;28;41371;-63
2023/06/19 12:21:45;;;;;;;10.88;6.03;;;35.40;32.50;;;;;;4915244;28;41973;-63
2023/06/19 12:24:11;;;;;;;10.63;6.00;;;35.70;30.70;;;;;;4950673;28;42398;-63
2023/06/19 12:26:37;;;;;;;19.92;6.75;;;36.10;29.20;;;;;;4942132;28;44914;-63
2023/06/19 12:29:04;;;;;;;6.75;5.13;;;36.30;31.80;;;;;;4958462;28;45463;-63
2023/06/19 12:31:32;;;;;;;10.07;5.78;;;35.80;28.00;;;;;;4979398;28;46635;-63
2023/06/19 12:33:58;;;;;;;8.48;5.47;;;35.50;26.70;;;;;;4973786;28;46664;-63
2023/06/19 12:36:25;;;;;;;10.32;5.85;;;35.40;30.00;;;;;;5000490;28;25000;-63
2023/06/19 12:38:54;;;;;;;15.30;8.52;;;35.70;31.60;;;;;;4988428;28;48541;-63
2023/06/19 12:41:21;;;;;;;16.23;6.97;;;35.10;28.90;;;;;;4993806;28;50185;-63
2023/06/19 12:43:47;;;;;;;10.55;5.80;;;35.10;27.30;;;;;;4945341;28;55368;-63
2023/06/19 12:46:14;;;;;;;7.40;5.47;;;34.30;31.40;;;;;;4798395;29;48783;-63
2023/06/19 12:48:44;;;;;;;11.07;5.75;;;34.50;30.40;;;;;;4809630;29;55349;-63